• Join FlightAware (Why Join?)
  • Login
  • US Flag 
Trick or treat! (Boo!!) 
12:40PM EDT


 

Airport Tracker/Info


-or-


 

Live Flight TrackerFlight Track Log ✈ N683FE ✈ 09-Apr-2013 ✈ KMEM - KRDU

Flight Track Log - Related Links

Times and Time Zones

All times are in EDT time to prevent confusion due to time zone crossing. See the N683FE flight status page for this flight to view local times or setup timezone preferences in your user account.

Time Position Orientation Groundspeed Altitude Reporting Facility
EDT Latitude Longitude Course Direction KTS MPH feet Rate Location/Type
04:56AM 35.0333 -89.9667 180° South 145 167 1,100  Level KMEM
04:57AM 35.0000 -89.9667 180° South 160 184 3,000 2,340 Climbing KMEM
04:58AM 34.9333 -89.9333 158° South 264 304 5,100 2,640 Climbing KMEM
04:59AM 34.9333 -89.8500 90° East 307 353 8,300 3,180 Climbing KMEM
05:00AM 34.9972 -89.7233 58° Northeast 372 428 12,300 3,240 Climbing Memphis Center
05:01AM 35.0403 -89.5886 69° East 404 465 15,700 3,660 Climbing Memphis Center
05:02AM 35.0792 -89.4436 72° East 434 499 19,700 3,060 Climbing Memphis Center
05:03AM 35.1156 -89.3111 71° East 449 517 21,900 2,520 Climbing Memphis Center
05:04AM 35.1581 -89.1558 71° East 476 548 24,800 2,700 Climbing Memphis Center
05:05AM 35.2042 -88.9875 71° East 491 565 27,300 2,580 Climbing Memphis Center
05:06AM 35.2461 -88.8214 73° East 506 582 30,000 480 Climbing Memphis Center
05:12AM 35.4950 -87.8740 73° East 35,000 300 Climbing FlightAware
05:13AM 35.5210 -87.7740 72° East 35,000  Level FlightAware
05:13AM 35.5490 -87.6660 72° East 35,000  Level FlightAware
05:14AM 35.5840 -87.5300 72° East 35,000  Level FlightAware
05:15AM 35.6130 -87.4170 72° East 35,000  Level FlightAware
05:15AM 35.6410 -87.3050 73° East 35,000  Level FlightAware
05:16AM 35.6830 -87.1370 73° East 35,000  Level FlightAware
05:17AM 35.7120 -87.0210 73° East 35,000  Level FlightAware
05:18AM 35.7440 -86.8960 72° East 35,000  Level FlightAware
05:19AM 35.7710 -86.7820 74° East 35,000  Level FlightAware
05:19AM 35.7990 -86.6720 73° East 35,000  Level FlightAware
05:20AM 35.8290 -86.5470 73° East 35,000  Level FlightAware
05:21AM 35.8570 -86.4330 73° East 35,000  Level FlightAware
05:21AM 35.8759 -86.3555 73° East 512 589 35,000  Level FlightAware ADS-B
05:22AM 35.8966 -86.2700 73° East 510 587 35,000  Level FlightAware ADS-B
05:22AM 35.9169 -86.1860 73° East 514 592 35,000  Level FlightAware ADS-B
05:23AM 35.9410 -86.0830 74° East 35,000  Level FlightAware
05:23AM 35.9610 -86.0020 73° East 511 588 35,000  Level FlightAware ADS-B
05:24AM 35.9819 -85.9148 73° East 526 605 35,000  Level FlightAware ADS-B
05:24AM 36.0129 -85.7837 74° East 521 600 35,000  Level FlightAware ADS-B
05:25AM 36.0329 -85.6990 74° East 502 578 35,000  Level FlightAware ADS-B
05:25AM 36.0535 -85.6128 74° East 527 606 35,000  Level FlightAware ADS-B
05:26AM 36.0791 -85.5038 74° East 510 587 35,000  Level FlightAware ADS-B
05:27AM 36.0992 -85.4175 74° East 501 577 35,000  Level FlightAware ADS-B
05:27AM 36.1239 -85.3112 74° East 534 615 35,000  Level FlightAware ADS-B
05:28AM 36.1437 -85.2261 74° East 523 602 35,000  Level FlightAware ADS-B
05:28AM 36.1660 -85.1298 74° East 500 575 35,000  Level FlightAware ADS-B
05:29AM 36.1860 -85.0429 74° East 513 590 35,000  Level FlightAware ADS-B
05:29AM 36.2061 -84.9547 74° East 513 590 35,000  Level FlightAware ADS-B
05:30AM 36.2257 -84.8680 74° East 511 588 35,000  Level FlightAware ADS-B
05:30AM 36.2456 -84.7813 74° East 518 596 35,000  Level FlightAware ADS-B
05:31AM 36.2671 -84.6874 74° East 526 605 35,000  Level FlightAware ADS-B
05:31AM 36.2868 -84.6004 74° East 531 611 35,000  Level FlightAware ADS-B
05:32AM 36.3062 -84.5134 75° East 506 582 35,000  Level FlightAware ADS-B
05:32AM 36.3255 -84.4267 75° East 504 580 35,000  Level FlightAware ADS-B
05:33AM 36.3448 -84.3402 74° East 513 590 35,000  Level FlightAware ADS-B
05:33AM 36.3642 -84.2540 74° East 505 581 35,000  Level FlightAware ADS-B
05:34AM 36.3831 -84.1690 75° East 511 588 35,000  Level FlightAware ADS-B
05:34AM 36.4020 -84.0825 75° East 506 582 35,000  Level FlightAware ADS-B
05:35AM 36.4219 -83.9920 75° East 521 600 35,000  Level FlightAware ADS-B
05:35AM 36.4406 -83.9072 75° East 520 598 35,000  Level FlightAware ADS-B
05:36AM 36.4592 -83.8224 75° East 511 588 35,000  Level FlightAware ADS-B
05:36AM 36.4777 -83.7374 75° East 515 593 35,000  Level FlightAware ADS-B
05:37AM 36.4969 -83.6484 75° East 504 580 35,000  Level FlightAware ADS-B
05:38AM 36.5153 -83.5634 75° East 504 580 35,000  Level FlightAware ADS-B
05:38AM 36.5340 -83.4769 75° East 508 585 35,000  Level FlightAware ADS-B
05:39AM 36.5522 -83.3916 75° East 502 578 35,000  Level FlightAware ADS-B
05:39AM 36.5752 -83.2839 75° East 519 597 35,000  Level FlightAware ADS-B
05:40AM 36.5991 -83.1708 75° East 506 582 35,000  Level FlightAware ADS-B
05:40AM 36.6171 -83.0862 75° East 519 597 35,000  Level FlightAware ADS-B
05:42AM 36.6282 -82.8742 86° East 509 586 35,000  Level FlightAware ADS-B
05:42AM 36.6303 -82.7815 88° East 518 596 35,000  Level FlightAware ADS-B
05:43AM 36.6326 -82.6812 88° East 517 595 35,000  Level FlightAware ADS-B
05:43AM 36.6350 -82.5765 88° East 514 592 35,000  Level FlightAware ADS-B
05:44AM 36.6396 -82.3526 88° East 510 587 35,000  Level FlightAware ADS-B
05:45AM 36.6415 -82.2632 88° East 500 575 35,000  Level FlightAware ADS-B
05:45AM 36.6432 -82.1736 89° East 506 582 35,000  Level FlightAware ADS-B
05:46AM 36.6447 -82.0794 89° East 504 580 35,000  Level FlightAware ADS-B
05:47AM 36.6464 -81.9836 89° East 506 582 35,000  Level FlightAware ADS-B
05:47AM 36.6494 -81.8905 88° East 511 588 35,000 -480 Level FlightAware ADS-B
05:48AM 36.6622 -81.7780 82° East 514 592 34,500 -840 Descending FlightAware ADS-B
05:48AM 36.6804 -81.6904 75° East 488 562 34,100 -480 Descending FlightAware ADS-B
05:49AM 36.7033 -81.5958 73° East 506 582 34,000 -120 Descending FlightAware ADS-B
05:49AM 36.7234 -81.5113 73° East 507 583 34,000  Level FlightAware ADS-B
05:50AM 36.7563 -81.3697 74° East 516 594 34,000 -180 Level FlightAware ADS-B
05:51AM 36.7760 -81.2832 74° East 509 586 33,800 -840 Descending FlightAware ADS-B
05:51AM 36.7811 -81.2319 74° East 505 581 33,300 -1,620 Descending Atlanta Center
05:52AM 36.8208 -81.0594 74° East 499 574 31,700 -1,860 Descending Atlanta Center
05:54AM 36.8914 -80.7628 73° East 519 597 28,100 -2,040 Descending Washington Center
05:55AM 36.9303 -80.5858 75° East 519 597 26,100 -1,560 Descending Washington Center
05:56AM 36.9736 -80.3964 74° East 524 603 25,000 -600 Descending Washington Center
05:57AM 37.0011 -80.2264 79° East 513 590 25,000 -120 Level Washington Center
05:58AM 36.9889 -80.0489 95° East 494 568 24,800 -960 Descending Washington Center
05:59AM 36.9172 -79.9044 122° Southeast 480 552 23,100 -1,860 Descending Washington Center
06:00AM 36.8444 -79.7783 126° Southeast 480 552 21,100 -2,040 Descending Washington Center
06:01AM 36.7719 -79.6394 123° Southeast 486 559 19,100 -1,860 Descending Washington Center
06:02AM 36.7033 -79.5064 123° Southeast 472 543 17,400 -1,980 Descending Washington Center
06:03AM 36.6286 -79.3656 123° Southeast 453 521 15,200 -2,100 Descending Washington Center
06:04AM 36.5617 -79.2408 124° Southeast 446 513 13,300 -1,920 Descending Washington Center
06:04AM 36.5281 -79.1772 123° Southeast 424 488 12,300 -1,920 Descending Washington Center
06:05AM 36.5061 -79.1425 128° Southeast 423 487 11,700 -1,680 Descending Washington Center
06:06AM 36.4389 -79.0181 124° Southeast 402 463 10,000 -960 Descending Washington Center
06:07AM 36.3614 -78.9478 144° Southeast 300 345 9,700 -780 Descending Washington Center
06:08AM 36.2978 -78.9114 155° Southeast 282 325 8,600 -1,140 Descending Washington Center
06:13AM 35.9650 -78.7050 155° Southeast 1,900 -1,140 Descending FlightAware
06:13AM 35.9530 -78.7080 191° South 1,700 -240 Descending FlightAware
06:14AM 35.9378 -78.7219 191° South 132 152 1,700 -420 Level Washington Center
06:15AM 35.9161 -78.7517 228° Southwest 104 120 1,100 -600 Descending Washington Center
06:17AM 35.8776 -78.7875 90° East  Level Estimated
06:24AM 35.8776 -78.7875 90° East  Level Estimated